DW4535 Weather Reports


Display with metric or nautical units.
time (UTC)temp
F
wind
direction
speed
MPH
gust
MPH
rain 1hr
in
rain 24hr
in
rain mn
in
humidity
%
barometer
mb
20210621134631 54 278 0.0 0.0 0.00 0.00 0.00 72 1011.7
20210621133221 53 278 0.0 0.0 0.00 0.00 0.00 73 1011.7
20210621131639 52 278 0.0 2.0 0.00 0.00 0.00 71 1011.6
20210621130117 53 278 0.0 2.0 0.00 0.00 0.00 71 1011.6
20210621124604 52 278 1.0 2.0 0.00 0.00 0.00 71 1011.5
20210621123058 52 278 0.0 1.0 0.00 0.00 0.00 71 1011.6
20210621121659 52 278 1.0 4.0 0.00 0.00 0.00 70 1011.5
20210621120130 53 169 0.0 2.0 0.00 0.00 0.00 70 1011.4
20210621114559 53 169 0.0 1.0 0.00 0.00 0.00 71 1011.2
20210621113119 53 169 0.0 2.0 0.00 0.00 0.00 70 1011.3
20210621111551 54 311 0.0 1.0 0.00 0.00 0.00 70 1011.1
20210621110047 55 311 0.0 3.0 0.00 0.00 0.00 70 1011.1
20210621104605 56 317 0.0 2.0 0.00 0.00 0.00 70 1011.1
20210621103105 57 316 0.0 3.0 0.00 0.00 0.00 71 1011.0
20210621101539 57 312 1.0 3.0 0.00 0.00 0.00 71 1011.1
20210621100041 56 312 1.0 3.0 0.00 0.00 0.00 70 1011.1
20210621094539 56 318 0.0 1.0 0.00 0.00 0.00 70 1011.2
20210621093029 56 318 1.0 6.0 0.00 0.00 0.00 70 1011.2
20210621091539 57 312 1.0 3.0 0.00 0.00 0.00 70 1011.3
20210621090044 57 302 0.0 2.0 0.00 0.00 0.00 70 1011.4
20210621084552 57 276 0.0 4.0 0.00 0.00 0.00 70 1011.2
20210621083040 57 35 0.0 3.0 0.00 0.00 0.00 71 1011.3
20210621081528 56 213 0.0 3.0 0.00 0.00 0.00 71 1011.3
20210621080025 55 290 2.0 4.0 0.00 0.00 0.00 71 1011.4
20210621074514 55 291 0.0 4.0 0.00 0.00 0.00 70 1011.4
20210621073013 55 242 0.0 4.0 0.00 0.00 0.00 71 1011.4
20210621071520 54 283 2.0 4.0 0.00 0.00 0.00 71 1011.5
20210621070025 55 284 0.0 2.0 0.00 0.00 0.00 71 1011.5
20210621064506 55 284 0.0 2.0 0.00 0.00 0.00 71 1011.5
20210621063002 56 284 0.0 1.0 0.00 0.00 0.00 71 1011.6
20210621061502 56 284 1.0 3.0 0.00 0.00 0.00 71 1011.7
20210621060014 57 284 0.0 1.0 0.00 0.00 0.00 70 1011.7
20210621054501 58 284 0.0 1.0 0.00 0.00 0.00 71 1011.8
20210621053116 58 284 0.0 2.0 0.00 0.00 0.00 71 1011.9
20210621051631 57 284 0.0 2.0 0.00 0.00 0.00 71 1011.9
20210621050121 57 284 0.0 3.0 0.00 0.00 0.00 71 1011.9
20210621044658 57 278 1.0 4.0 0.00 0.00 0.00 70 1011.9
20210621043246 58 254 2.0 4.0 0.00 0.00 0.00 71 1011.9
20210621041632 58 283 2.0 5.0 0.00 0.00 0.00 69 1011.8
20210621040155 59 271 2.0 5.0 0.00 0.00 0.00 69 1011.8
20210621034713 60 295 3.0 6.0 0.00 0.00 0.00 67 1011.8
20210621033109 61 297 2.0 4.0 0.00 0.00 0.00 68 1011.8
20210621031723 60 294 1.0 6.0 0.00 0.00 0.00 69 1011.9
20210621030153 58 290 5.0 10.0 0.00 0.00 0.00 69 1011.9
20210621024642 58 273 5.0 10.0 0.00 0.00 0.00 70 1011.9
20210621023130 59 276 8.0 11.0 0.00 0.00 0.00 68 1012.1
20210621021624 60 268 5.0 8.0 0.00 0.00 0.00 66 1012.2
20210621020052 62 285 5.0 7.0 0.00 0.00 0.00 64 1012.1
20210621014610 62 285 5.0 9.0 0.00 0.00 0.00 63 1012.3
20210621013151 64 296 5.0 8.0 0.00 0.00 0.00 61 1012.4
20210621011633 65 293 2.0 6.0 0.00 0.00 0.00 60 1012.3
20210621010102 66 37 3.0 8.0 0.00 0.00 0.00 60 1012.4
20210621004559 66 336 2.0 5.0 0.00 0.00 0.00 61 1012.5
20210621003043 64 266 3.0 9.0 0.00 0.00 0.00 63 1012.6
20210621001619 64 263 3.0 8.0 0.00 0.00 0.00 64 1012.7
20210621000044 64 285 6.0 9.0 0.00 0.00 0.00 62 1012.9
20210620234534 64 295 5.0 12.0 0.00 0.00 0.00 63 1012.9
20210620233030 64 283 6.0 10.0 0.00 0.00 0.00 63 1013.0
20210620231534 64 296 8.0 14.0 0.00 0.00 0.00 62 1013.1
20210620230031 64 273 7.0 11.0 0.00 0.00 0.00 63 1013.2
20210620224529 64 283 5.0 10.0 0.00 0.00 0.00 64 1013.5
20210620223018 63 284 7.0 16.0 0.00 0.00 0.00 65 1013.5
20210620221521 62 279 11.0 15.0 0.00 0.00 0.00 66 1013.7
20210620220044 63 289 9.0 14.0 0.00 0.00 0.00 64 1013.8
20210620214615 63 281 6.0 12.0 0.00 0.00 0.00 65 1013.9
20210620213027 63 324 8.0 13.0 0.00 0.00 0.00 64 1013.9
20210620211541 62 278 10.0 18.0 0.00 0.00 0.00 65 1013.8
20210620210010 62 286 8.0 16.0 0.00 0.00 0.00 65 1014.0
20210620204529 62 309 12.0 18.0 0.00 0.00 0.00 64 1013.9
20210620203006 62 283 8.0 17.0 0.00 0.00 0.00 66 1014.0
20210620201503 60 284 12.0 20.0 0.00 0.00 0.00 67 1014.1
20210620200007 60 280 12.0 22.0 0.00 0.00 0.00 67 1014.1
20210620194503 60 273 12.0 21.0 0.00 0.00 0.00 67 1014.1
20210620193226 60 292 12.0 17.0 0.00 0.00 0.00 66 1014.3
20210620191627 60 280 9.0 15.0 0.00 0.00 0.00 67 1014.3
20210620190156 60 291 10.0 16.0 0.00 0.00 0.00 67 1014.3
20210620184755 58 285 11.0 17.0 0.00 0.00 0.00 68 1014.4
20210620183332 58 293 12.0 19.0 0.00 0.00 0.00 69 1014.4
20210620181725 58 283 10.0 20.0 0.00 0.00 0.00 69 1014.4
20210620180303 57 290 11.0 19.0 0.00 0.00 0.00 71 1014.4
20210620174720 57 290 13.0 20.0 0.00 0.00 0.00 71 1014.5
20210620173215 57 281 12.0 18.0 0.00 0.00 0.00 71 1014.5
20210620171641 57 294 11.0 16.0 0.00 0.00 0.00 70 1014.6
20210620170128 57 278 11.0 16.0 0.00 0.00 0.00 70 1014.7
20210620164609 57 283 10.0 15.0 0.00 0.00 0.00 70 1014.8
20210620163047 58 269 6.0 12.0 0.00 0.00 0.00 69 1014.9
20210620161615 58 277 6.0 12.0 0.00 0.00 0.00 69 1014.9
20210620160045 60 276 6.0 10.0 0.00 0.00 0.00 68 1015.0
20210620154544 59 276 3.0 10.0 0.00 0.00 0.00 71 1015.0
20210620153052 59 288 3.0 8.0 0.00 0.00 0.00 72 1015.1
20210620151543 58 310 2.0 7.0 0.00 0.00 0.00 72 1015.2
20210620150042 58 311 2.0 6.0 0.00 0.00 0.00 73 1015.3
20210620144550 57 359 1.0 9.0 0.00 0.00 0.00 73 1015.3
20210620143034 57 75 1.0 7.0 0.00 0.00 0.00 73 1015.4
20210620141556 56 76 2.0 6.0 0.00 0.00 0.00 73 1015.5
20210620140117 56 258 1.0 5.0 0.00 0.00 0.00 73 1015.5